createdAt,value
2022-08-26T00:01:54.298Z,27.88
2022-08-26T00:04:23.812Z,27.85
2022-08-26T00:06:52.415Z,27.83
2022-08-26T00:09:19.652Z,27.82
2022-08-26T00:11:47.454Z,27.84
2022-08-26T00:14:16.387Z,27.80
2022-08-26T00:16:47.239Z,27.77
2022-08-26T00:19:18.017Z,27.76
2022-08-26T00:21:48.558Z,27.76
2022-08-26T00:24:16.991Z,27.75
2022-08-26T00:26:44.594Z,27.74
2022-08-26T00:29:12.551Z,27.75
2022-08-26T00:31:40.962Z,27.73
2022-08-26T00:34:09.490Z,27.68
2022-08-26T00:36:37.608Z,27.67
2022-08-26T00:39:07.586Z,27.65
2022-08-26T00:41:37.696Z,27.68
2022-08-26T00:44:05.654Z,27.67
2022-08-26T00:46:37.107Z,27.67
2022-08-26T00:49:17.378Z,27.67
2022-08-26T00:51:49.616Z,27.64
2022-08-26T00:54:20.589Z,27.63
2022-08-26T00:57:05.023Z,27.60
2022-08-26T00:59:36.568Z,27.59
2022-08-26T01:02:06.780Z,27.60
2022-08-26T01:04:48.723Z,27.55
2022-08-26T01:07:22.010Z,27.53
2022-08-26T01:09:49.317Z,27.55
2022-08-26T01:12:22.055Z,27.54
2022-08-26T01:14:50.380Z,27.58
2022-08-26T01:17:18.514Z,27.53
2022-08-26T01:19:51.114Z,27.51
2022-08-26T01:22:28.635Z,27.50
2022-08-26T01:24:59.700Z,27.50
2022-08-26T01:27:32.420Z,27.47
2022-08-26T01:30:01.888Z,27.48
2022-08-26T01:32:33.323Z,27.26
2022-08-26T01:35:01.204Z,27.30
2022-08-26T01:37:35.203Z,27.37
2022-08-26T01:40:04.630Z,27.34
2022-08-26T01:42:32.064Z,27.30
2022-08-26T01:45:14.783Z,27.35
2022-08-26T01:47:43.340Z,27.34
2022-08-26T01:50:27.999Z,27.27
2022-08-26T01:53:01.944Z,27.40
2022-08-26T01:55:33.198Z,27.34
2022-08-26T01:58:06.628Z,27.23
2022-08-26T02:00:35.813Z,27.27
2022-08-26T02:03:17.514Z,27.25
2022-08-26T02:05:55.035Z,27.24
2022-08-26T02:08:28.931Z,27.25
2022-08-26T02:10:56.144Z,27.28
2022-08-26T02:13:26.748Z,27.19
2022-08-26T02:15:55.486Z,27.18
2022-08-26T02:18:23.934Z,27.18
2022-08-26T02:20:54.487Z,27.20
2022-08-26T02:23:21.895Z,27.21
2022-08-26T02:26:02.931Z,27.23
2022-08-26T02:28:35.905Z,27.14
2022-08-26T02:31:03.596Z,27.20
2022-08-26T02:33:32.021Z,27.23
2022-08-26T02:35:59.531Z,27.19
2022-08-26T02:38:26.886Z,27.04
2022-08-26T02:40:54.544Z,27.09
2022-08-26T02:43:23.871Z,27.10
2022-08-26T02:46:00.091Z,27.08
2022-08-26T02:48:29.036Z,26.97
2022-08-26T02:50:56.456Z,27.00
2022-08-26T02:53:25.479Z,27.07
2022-08-26T02:55:53.132Z,27.06
2022-08-26T02:58:20.790Z,27.02
2022-08-26T03:00:53.147Z,27.03
2022-08-26T03:03:22.508Z,27.05
2022-08-26T03:05:52.100Z,27.05
2022-08-26T03:08:19.743Z,27.05
2022-08-26T03:10:48.069Z,27.06
2022-08-26T03:13:16.922Z,27.05
2022-08-26T03:15:44.449Z,27.06
2022-08-26T03:18:15.097Z,27.02
2022-08-26T03:20:42.355Z,26.99
2022-08-26T03:23:11.179Z,26.99
2022-08-26T03:25:38.792Z,26.99
2022-08-26T03:28:06.076Z,27.03
2022-08-26T03:30:45.047Z,27.01
2022-08-26T03:33:13.777Z,27.03
2022-08-26T03:35:43.611Z,27.02
2022-08-26T03:38:11.752Z,27.02
2022-08-26T03:40:39.824Z,27.01
2022-08-26T03:43:10.668Z,27.03
2022-08-26T03:45:38.701Z,27.03
2022-08-26T03:48:06.023Z,27.00
2022-08-26T03:50:34.284Z,26.99
2022-08-26T03:53:04.210Z,27.06
2022-08-26T03:55:34.511Z,27.05
2022-08-26T03:58:02.285Z,27.07
2022-08-26T04:00:30.295Z,27.10
2022-08-26T04:02:57.875Z,26.99
2022-08-26T04:05:25.373Z,26.96
2022-08-26T04:07:52.596Z,26.93
2022-08-26T04:10:26.426Z,26.93
2022-08-26T04:12:58.849Z,26.95
2022-08-26T04:15:27.273Z,26.96
2022-08-26T04:17:56.029Z,26.93
2022-08-26T04:20:25.983Z,26.95
2022-08-26T04:22:53.649Z,27.03
2022-08-26T04:25:21.431Z,26.90
2022-08-26T04:27:48.679Z,26.76
2022-08-26T04:30:17.905Z,26.79
2022-08-26T04:32:45.687Z,26.82
2022-08-26T04:35:12.917Z,26.85
2022-08-26T04:37:40.208Z,26.87
2022-08-26T04:40:10.970Z,26.86
2022-08-26T04:42:38.319Z,26.90
2022-08-26T04:45:10.361Z,26.91
2022-08-26T04:47:38.639Z,26.93
2022-08-26T04:50:07.652Z,26.93
2022-08-26T04:52:36.372Z,27.00
2022-08-26T04:55:05.982Z,26.97
2022-08-26T04:57:33.903Z,26.99
2022-08-26T05:00:01.051Z,26.99
2022-08-26T05:02:28.720Z,27.05
2022-08-26T05:04:55.871Z,27.07
2022-08-26T05:07:23.055Z,27.08
2022-08-26T05:09:50.133Z,27.12
2022-08-26T05:12:17.290Z,27.13
2022-08-26T05:14:46.500Z,27.09
2022-08-26T05:17:15.035Z,27.11
2022-08-26T05:19:42.956Z,27.08
2022-08-26T05:22:10.356Z,27.14
2022-08-26T05:24:41.358Z,27.15
2022-08-26T05:27:11.696Z,27.03
2022-08-26T05:29:41.073Z,27.01
2022-08-26T05:32:08.432Z,27.02
2022-08-26T05:34:38.616Z,27.08
2022-08-26T05:37:06.788Z,26.95
2022-08-26T05:39:34.400Z,26.85
2022-08-26T05:42:01.609Z,26.93
2022-08-26T05:44:29.631Z,27.00
2022-08-26T05:47:16.771Z,26.81
2022-08-26T05:49:51.612Z,26.95
2022-08-26T05:52:19.589Z,26.85
2022-08-26T05:54:47.777Z,26.89
2022-08-26T05:57:15.231Z,27.04
2022-08-26T05:59:42.448Z,27.11
2022-08-26T06:02:10.188Z,27.21
2022-08-26T06:04:37.324Z,27.08
2022-08-26T06:07:04.561Z,27.03
2022-08-26T06:09:33.064Z,26.94
2022-08-26T06:12:01.869Z,26.78
2022-08-26T06:14:30.621Z,26.80
2022-08-26T06:16:57.903Z,26.93
2022-08-26T06:19:25.122Z,27.07
2022-08-26T06:22:22.445Z,27.18
2022-08-26T06:25:10.126Z,27.09
2022-08-26T06:27:37.424Z,27.20
2022-08-26T06:30:04.856Z,27.18
2022-08-26T06:32:32.130Z,27.19
2022-08-26T06:34:59.321Z,27.26
2022-08-26T06:37:26.492Z,27.31
2022-08-26T06:39:53.623Z,27.38
2022-08-26T06:42:20.848Z,27.45
2022-08-26T06:44:48.023Z,27.45
2022-08-26T06:47:15.263Z,27.52
2022-08-26T06:49:42.453Z,27.58
2022-08-26T06:52:11.457Z,27.64
2022-08-26T06:54:43.184Z,27.70
2022-08-26T06:57:12.438Z,27.78
2022-08-26T06:59:41.436Z,27.80
2022-08-26T07:02:08.668Z,27.79
2022-08-26T07:04:41.120Z,27.84
2022-08-26T07:07:09.672Z,27.84
2022-08-26T07:09:37.548Z,27.88
2022-08-26T07:12:06.846Z,27.98
2022-08-26T07:14:34.907Z,28.07
2022-08-26T07:17:02.999Z,28.12
2022-08-26T07:19:31.766Z,28.22
2022-08-26T07:22:04.948Z,28.26
2022-08-26T07:24:35.586Z,28.22
2022-08-26T07:27:09.087Z,28.28
2022-08-26T07:29:38.045Z,28.40
2022-08-26T07:32:06.706Z,28.54
2022-08-26T07:34:33.928Z,28.62
2022-08-26T07:37:01.600Z,28.65
2022-08-26T07:39:31.677Z,28.71
2022-08-26T07:42:07.881Z,28.76
2022-08-26T07:44:37.602Z,28.85
2022-08-26T07:47:10.069Z,28.87
2022-08-26T07:49:52.667Z,28.99
2022-08-26T07:52:25.356Z,29.11
2022-08-26T07:54:54.341Z,29.08
2022-08-26T07:57:21.631Z,29.04
2022-08-26T07:59:54.067Z,29.09
2022-08-26T08:02:23.929Z,29.21
2022-08-26T08:04:51.915Z,29.26
2022-08-26T08:07:19.339Z,29.32
2022-08-26T08:09:49.601Z,29.42
2022-08-26T08:12:19.193Z,29.48
2022-08-26T08:14:47.297Z,29.48
2022-08-26T08:17:16.329Z,29.58
2022-08-26T08:19:43.748Z,29.62
2022-08-26T08:22:17.367Z,29.76
2022-08-26T08:24:49.715Z,29.92
2022-08-26T08:27:23.288Z,30.03
2022-08-26T08:29:54.369Z,30.13
2022-08-26T08:32:23.765Z,30.19
2022-08-26T08:34:51.112Z,30.29
2022-08-26T08:37:18.918Z,30.36
2022-08-26T08:39:46.030Z,30.44
2022-08-26T08:42:30.328Z,30.51
2022-08-26T08:45:02.357Z,30.56
2022-08-26T08:47:39.920Z,30.61
2022-08-26T08:50:17.782Z,30.72
2022-08-26T08:52:51.162Z,30.83
2022-08-26T08:55:18.821Z,30.96
2022-08-26T08:57:49.357Z,31.02
2022-08-26T09:00:30.655Z,31.08
2022-08-26T09:03:07.553Z,31.20
2022-08-26T09:05:48.743Z,31.30
2022-08-26T09:08:21.929Z,31.39
2022-08-26T09:10:59.617Z,31.25
2022-08-26T09:13:28.460Z,31.24
2022-08-26T09:16:22.493Z,31.21
2022-08-26T09:19:14.354Z,31.32
2022-08-26T09:21:41.552Z,31.45
2022-08-26T09:24:11.240Z,31.57
2022-08-26T09:26:43.811Z,31.60
2022-08-26T09:29:33.999Z,31.68
2022-08-26T09:32:24.447Z,31.45
2022-08-26T09:34:56.936Z,31.57
2022-08-26T09:40:27.129Z,31.64
2022-08-26T09:43:06.779Z,31.71
2022-08-26T09:45:36.294Z,31.72
2022-08-26T09:48:03.703Z,31.63
2022-08-26T09:50:50.448Z,31.69
2022-08-26T09:53:28.507Z,31.84
2022-08-26T09:56:32.805Z,31.95
2022-08-26T09:59:01.476Z,31.92
2022-08-26T10:01:30.839Z,31.95
2022-08-26T10:04:20.137Z,32.03
2022-08-26T10:07:07.546Z,31.96
2022-08-26T10:09:39.940Z,32.09
2022-08-26T10:12:12.081Z,32.23
2022-08-26T10:17:29.126Z,32.28
2022-08-26T10:20:24.974Z,32.31
2022-08-26T10:23:18.100Z,32.32
2022-08-26T10:26:14.514Z,32.43
2022-08-26T10:29:07.632Z,32.55
2022-08-26T10:31:41.185Z,32.62
2022-08-26T10:34:12.471Z,32.74
2022-08-26T10:37:10.543Z,32.79
2022-08-26T10:39:56.934Z,32.87
2022-08-26T10:42:40.564Z,32.99
2022-08-26T10:45:28.933Z,33.10
2022-08-26T10:48:05.368Z,33.23
2022-08-26T10:50:40.323Z,33.16
2022-08-26T10:53:32.636Z,33.15
2022-08-26T10:56:18.867Z,33.00
2022-08-26T10:58:55.304Z,32.96
2022-08-26T11:01:41.086Z,32.97
2022-08-26T11:04:35.092Z,32.90
2022-08-26T11:07:31.758Z,32.87
2022-08-26T11:10:06.880Z,32.85
2022-08-26T11:12:37.230Z,33.02
2022-08-26T11:15:20.044Z,32.95
2022-08-26T11:17:51.932Z,32.93
2022-08-26T11:20:37.124Z,32.76
2022-08-26T11:23:12.763Z,32.89
2022-08-26T11:26:01.579Z,32.98
2022-08-26T11:28:44.801Z,32.93
2022-08-26T11:31:34.688Z,33.04
2022-08-26T11:34:07.147Z,33.17
2022-08-26T11:36:51.866Z,33.09
2022-08-26T11:39:30.391Z,33.13
2022-08-26T11:42:14.350Z,33.14
2022-08-26T11:44:49.166Z,33.23
2022-08-26T11:47:25.083Z,33.28
2022-08-26T11:50:11.332Z,33.28
2022-08-26T11:52:38.600Z,32.98
2022-08-26T11:55:08.994Z,33.08
2022-08-26T11:57:44.962Z,33.33
2022-08-26T12:00:22.186Z,33.36
2022-08-26T12:02:52.645Z,33.43
2022-08-26T12:05:36.270Z,33.48
2022-08-26T12:08:12.215Z,33.22
2022-08-26T12:10:40.301Z,33.13
2022-08-26T12:13:16.759Z,33.21
2022-08-26T12:15:53.282Z,33.40
2022-08-26T12:18:29.529Z,33.49
2022-08-26T12:21:00.664Z,33.57
2022-08-26T12:23:36.999Z,33.70
2022-08-26T12:26:21.244Z,33.66
2022-08-26T12:28:53.090Z,33.78
2022-08-26T12:31:30.266Z,33.88
2022-08-26T12:34:00.680Z,33.97
2022-08-26T12:36:43.192Z,33.87
2022-08-26T12:39:33.489Z,33.93
2022-08-26T12:42:24.775Z,33.92
2022-08-26T12:44:59.213Z,33.79
2022-08-26T12:47:42.970Z,33.86
2022-08-26T12:50:32.775Z,33.81
2022-08-26T12:53:17.005Z,33.84
2022-08-26T12:55:48.525Z,33.92
2022-08-26T12:58:15.694Z,34.01
2022-08-26T13:00:45.068Z,34.05
2022-08-26T13:03:31.699Z,34.07
2022-08-26T13:06:18.035Z,34.09
2022-08-26T13:08:48.443Z,34.25
2022-08-26T13:11:20.696Z,34.38
2022-08-26T13:13:53.431Z,34.51
2022-08-26T13:16:22.409Z,34.63
2022-08-26T13:18:53.158Z,34.37
2022-08-26T13:21:23.983Z,34.30
2022-08-26T13:23:52.056Z,34.15
2022-08-26T13:26:20.997Z,34.14
2022-08-26T13:29:01.557Z,34.20
2022-08-26T13:31:33.049Z,34.34
2022-08-26T13:34:01.119Z,34.47
2022-08-26T13:36:28.483Z,34.56
2022-08-26T13:38:55.831Z,34.65
2022-08-26T13:41:29.260Z,34.40
2022-08-26T13:43:58.191Z,34.47
2022-08-26T13:46:28.211Z,34.57
2022-08-26T13:48:57.559Z,34.66
2022-08-26T13:51:26.335Z,34.67
2022-08-26T13:53:54.365Z,34.51
2022-08-26T13:56:23.028Z,34.57
2022-08-26T13:58:50.424Z,34.78
2022-08-26T14:01:17.883Z,34.87
2022-08-26T14:03:46.278Z,35.05
2022-08-26T14:06:13.768Z,34.98
2022-08-26T14:08:43.139Z,35.05
2022-08-26T14:11:10.495Z,35.24
2022-08-26T14:13:39.266Z,35.30
2022-08-26T14:16:10.912Z,35.38
2022-08-26T14:18:44.396Z,35.34
2022-08-26T14:21:14.733Z,35.30
2022-08-26T14:23:42.089Z,35.34
2022-08-26T14:26:11.051Z,35.45
2022-08-26T14:28:44.794Z,35.43
2022-08-26T14:31:12.702Z,35.43
2022-08-26T14:33:40.078Z,35.52
2022-08-26T14:36:26.378Z,35.64
2022-08-26T14:38:55.707Z,35.71
2022-08-26T14:41:25.484Z,35.71
2022-08-26T14:44:13.759Z,35.73
2022-08-26T14:46:48.168Z,35.83
2022-08-26T14:49:20.072Z,35.75
2022-08-26T14:51:47.405Z,35.50
2022-08-26T14:54:16.331Z,35.66
2022-08-26T14:56:51.389Z,35.78
2022-08-26T14:59:21.943Z,35.88
2022-08-26T15:01:49.390Z,35.61
2022-08-26T15:04:17.039Z,35.24
2022-08-26T15:06:44.424Z,34.96
2022-08-26T15:09:11.723Z,34.61
2022-08-26T15:11:39.503Z,34.39
2022-08-26T15:14:07.183Z,34.37
2022-08-26T15:16:35.067Z,34.18
2022-08-26T15:19:05.127Z,33.95
2022-08-26T15:21:34.206Z,33.78
2022-08-26T15:24:02.925Z,33.74
2022-08-26T15:26:31.619Z,33.91
2022-08-26T15:29:03.093Z,33.93
2022-08-26T15:31:33.014Z,34.00
2022-08-26T15:34:04.375Z,34.06
2022-08-26T15:36:32.574Z,34.16
2022-08-26T15:39:01.190Z,33.97
2022-08-26T15:41:29.520Z,34.03
2022-08-26T15:43:57.817Z,34.11
2022-08-26T15:46:24.952Z,34.11
2022-08-26T15:48:52.737Z,34.12
2022-08-26T15:51:23.189Z,34.13
2022-08-26T15:53:51.507Z,34.09
2022-08-26T15:56:19.045Z,34.03
2022-08-26T15:58:47.074Z,34.13
2022-08-26T16:01:14.925Z,34.16
2022-08-26T16:03:52.434Z,34.32
2022-08-26T16:06:24.127Z,34.30
2022-08-26T16:08:51.925Z,34.36
2022-08-26T16:11:20.051Z,34.39
2022-08-26T16:13:47.884Z,34.13
2022-08-26T16:16:16.077Z,34.05
2022-08-26T16:18:43.962Z,33.93
2022-08-26T16:21:20.954Z,33.92
2022-08-26T16:23:48.793Z,33.91
2022-08-26T16:26:18.599Z,33.87
2022-08-26T16:28:46.899Z,33.88
2022-08-26T16:31:14.849Z,33.91
2022-08-26T16:33:42.297Z,33.86
2022-08-26T16:36:10.361Z,33.84
2022-08-26T16:38:38.598Z,33.74
2022-08-26T16:41:06.477Z,33.67
2022-08-26T16:43:34.375Z,33.52
2022-08-26T16:46:01.689Z,33.47
2022-08-26T16:48:28.943Z,33.30
2022-08-26T16:50:56.056Z,33.16
2022-08-26T16:53:23.642Z,33.08
2022-08-26T16:55:51.481Z,32.99
2022-08-26T16:58:21.935Z,32.94
2022-08-26T17:00:49.555Z,32.83
2022-08-26T17:03:16.980Z,32.84
2022-08-26T17:05:44.622Z,32.82
2022-08-26T17:08:14.542Z,32.82
2022-08-26T17:10:54.853Z,32.78
2022-08-26T17:13:34.877Z,32.72
2022-08-26T17:16:05.201Z,32.63
2022-08-26T17:18:33.645Z,32.58
2022-08-26T17:21:03.917Z,32.55
2022-08-26T17:23:31.158Z,32.49
2022-08-26T17:25:58.329Z,32.45
2022-08-26T17:28:25.551Z,32.40
2022-08-26T17:30:52.845Z,32.33
2022-08-26T17:33:22.099Z,32.30
2022-08-26T17:35:53.100Z,32.21
2022-08-26T17:38:21.663Z,32.13
2022-08-26T17:40:49.768Z,32.04
2022-08-26T17:43:17.867Z,31.86
2022-08-26T17:45:45.167Z,31.44
2022-08-26T17:48:12.588Z,31.45
2022-08-26T17:50:41.493Z,31.44
2022-08-26T17:53:17.837Z,31.37
2022-08-26T17:55:47.655Z,31.33
2022-08-26T17:58:17.317Z,31.33
2022-08-26T18:00:47.229Z,31.29
2022-08-26T18:03:14.575Z,31.26
2022-08-26T18:05:42.759Z,31.26
2022-08-26T18:08:10.251Z,31.21
2022-08-26T18:10:37.709Z,31.06
2022-08-26T18:13:04.999Z,31.02
2022-08-26T18:15:32.376Z,30.93
2022-08-26T18:17:59.860Z,30.93
2022-08-26T18:20:26.983Z,30.95
2022-08-26T18:22:54.231Z,30.96
2022-08-26T18:25:21.483Z,30.92
2022-08-26T18:27:48.737Z,30.89
2022-08-26T18:30:20.793Z,30.78
2022-08-26T18:32:49.564Z,30.80
2022-08-26T18:35:17.593Z,30.80
2022-08-26T18:37:45.270Z,30.80
2022-08-26T18:40:14.301Z,30.80
2022-08-26T18:42:41.781Z,30.73
2022-08-26T18:45:10.094Z,30.68
2022-08-26T18:47:44.061Z,30.66
2022-08-26T18:50:11.300Z,30.69
2022-08-26T18:52:38.679Z,30.64
2022-08-26T18:55:07.023Z,30.57
2022-08-26T18:57:34.166Z,30.51
2022-08-26T19:00:02.280Z,30.45
2022-08-26T19:02:30.651Z,30.44
2022-08-26T19:04:57.986Z,30.41
2022-08-26T19:07:25.495Z,30.40
2022-08-26T19:09:54.138Z,30.41
2022-08-26T19:12:21.857Z,30.40
2022-08-26T19:14:49.040Z,30.40
2022-08-26T19:17:16.266Z,30.37
2022-08-26T19:19:43.444Z,30.36
2022-08-26T19:22:12.913Z,30.36
2022-08-26T19:24:40.016Z,30.39
2022-08-26T19:27:09.717Z,30.33
2022-08-26T19:29:38.855Z,30.25
2022-08-26T19:32:06.182Z,30.15
2022-08-26T19:34:33.425Z,30.14
2022-08-26T19:37:00.883Z,30.13
2022-08-26T19:39:28.576Z,30.12
2022-08-26T19:41:55.879Z,30.09
2022-08-26T19:44:42.450Z,30.07
2022-08-26T19:47:11.004Z,30.03
2022-08-26T19:49:38.852Z,30.00
2022-08-26T19:52:06.555Z,29.92
2022-08-26T19:54:34.648Z,29.83
2022-08-26T19:57:02.138Z,29.86
2022-08-26T19:59:29.504Z,29.86
2022-08-26T20:02:01.015Z,29.83
2022-08-26T20:04:30.455Z,29.82
2022-08-26T20:07:00.338Z,29.81
2022-08-26T20:09:32.770Z,29.67
2022-08-26T20:12:01.136Z,29.68
2022-08-26T20:14:30.027Z,29.60
2022-08-26T20:16:57.352Z,29.56
2022-08-26T20:19:43.530Z,29.56
2022-08-26T20:22:11.560Z,29.55
2022-08-26T20:24:38.844Z,29.57
2022-08-26T20:27:08.011Z,29.53
2022-08-26T20:29:36.488Z,29.53
2022-08-26T20:32:06.300Z,29.47
2022-08-26T20:34:34.420Z,29.45
2022-08-26T20:37:02.282Z,29.45
2022-08-26T20:39:29.926Z,29.46
2022-08-26T20:41:58.289Z,29.41
2022-08-26T20:44:25.776Z,29.27
2022-08-26T20:46:53.276Z,29.24
2022-08-26T20:49:20.717Z,29.23
2022-08-26T20:51:51.531Z,29.24
2022-08-26T20:54:23.930Z,29.24
2022-08-26T20:56:54.961Z,29.23
2022-08-26T20:59:22.363Z,29.21
2022-08-26T21:01:49.679Z,29.15
2022-08-26T21:04:21.794Z,29.15
2022-08-26T21:06:52.450Z,29.12
2022-08-26T21:09:22.422Z,29.15
2022-08-26T21:11:50.404Z,29.10
2022-08-26T21:14:19.077Z,29.08
2022-08-26T21:16:47.189Z,29.08
2022-08-26T21:19:18.136Z,29.08
2022-08-26T21:21:47.742Z,29.05
2022-08-26T21:24:15.713Z,29.04
2022-08-26T21:26:42.964Z,29.04
2022-08-26T21:29:10.195Z,28.94
2022-08-26T21:31:44.937Z,28.92
2022-08-26T21:34:17.527Z,28.92
2022-08-26T21:36:48.564Z,28.77
2022-08-26T21:39:16.880Z,28.81
2022-08-26T21:41:45.053Z,28.82
2022-08-26T21:44:14.422Z,28.85
2022-08-26T21:46:42.733Z,28.86
2022-08-26T21:49:13.373Z,28.84
2022-08-26T21:51:45.287Z,28.84
2022-08-26T21:54:13.097Z,28.84
2022-08-26T21:56:46.851Z,28.84
2022-08-26T21:59:17.361Z,28.81
2022-08-26T22:01:44.834Z,28.76
2022-08-26T22:04:12.088Z,28.71
2022-08-26T22:06:48.287Z,28.68
2022-08-26T22:09:18.791Z,28.54
2022-08-26T22:11:47.504Z,28.60
2022-08-26T22:14:17.448Z,28.62
2022-08-26T22:16:44.701Z,28.66
2022-08-26T22:19:18.026Z,28.64
2022-08-26T22:21:45.454Z,28.58
2022-08-26T22:24:12.669Z,28.61
2022-08-26T22:26:40.069Z,28.63
2022-08-26T22:29:07.697Z,28.56
2022-08-26T22:31:36.960Z,28.58
2022-08-26T22:34:09.356Z,28.60
2022-08-26T22:36:43.180Z,28.58
2022-08-26T22:39:13.102Z,28.54
2022-08-26T22:41:41.323Z,28.54
2022-08-26T22:44:08.508Z,28.51
2022-08-26T22:46:36.829Z,28.49
2022-08-26T22:49:04.957Z,28.44
2022-08-26T22:51:32.374Z,28.39
2022-08-26T22:53:59.572Z,28.29
2022-08-26T22:56:27.000Z,28.29
2022-08-26T22:58:54.158Z,28.32
2022-08-26T23:01:21.384Z,28.34
2022-08-26T23:03:48.666Z,28.34
2022-08-26T23:06:15.870Z,28.23
2022-08-26T23:08:45.433Z,28.35
2022-08-26T23:11:13.453Z,28.35
2022-08-26T23:13:41.264Z,28.34
2022-08-26T23:16:11.396Z,28.35
2022-08-26T23:18:40.159Z,28.31
2022-08-26T23:21:07.527Z,28.28
2022-08-26T23:23:35.328Z,28.28
2022-08-26T23:26:06.018Z,28.28
2022-08-26T23:28:34.897Z,28.26
2022-08-26T23:31:02.158Z,28.21
2022-08-26T23:33:49.657Z,28.16
2022-08-26T23:36:18.508Z,28.17
2022-08-26T23:38:52.961Z,28.18
2022-08-26T23:41:23.371Z,28.17
2022-08-26T23:43:51.756Z,28.17
2022-08-26T23:46:19.259Z,28.17
2022-08-26T23:48:46.940Z,28.13
2022-08-26T23:51:32.975Z,28.09
2022-08-26T23:54:00.234Z,28.08
2022-08-26T23:56:27.378Z,28.09
2022-08-26T23:58:55.113Z,28.07
